sensor_id;sensor_type;location;lat;lon;timestamp;P1;durP1;ratioP1;P2;durP2;ratioP2
54125;SDS011;40360;52.992;6.796;2023-04-16T00:02:06;100.10;;;44.92;;
54125;SDS011;40360;52.992;6.796;2023-04-16T00:04:32;100.57;;;45.05;;
54125;SDS011;40360;52.992;6.796;2023-04-16T00:06:57;85.63;;;41.10;;
54125;SDS011;40360;52.992;6.796;2023-04-16T00:09:23;78.80;;;40.33;;
54125;SDS011;40360;52.992;6.796;2023-04-16T00:11:48;87.28;;;42.25;;
54125;SDS011;40360;52.992;6.796;2023-04-16T00:14:14;89.80;;;42.35;;
54125;SDS011;40360;52.992;6.796;2023-04-16T00:16:40;87.30;;;40.78;;
54125;SDS011;40360;52.992;6.796;2023-04-16T00:19:05;82.88;;;42.80;;
54125;SDS011;40360;52.992;6.796;2023-04-16T00:21:31;80.55;;;39.58;;
54125;SDS011;40360;52.992;6.796;2023-04-16T00:23:57;79.90;;;42.10;;
54125;SDS011;40360;52.992;6.796;2023-04-16T00:26:23;78.65;;;39.25;;
54125;SDS011;40360;52.992;6.796;2023-04-16T00:28:48;91.30;;;42.13;;
54125;SDS011;40360;52.992;6.796;2023-04-16T00:31:14;85.40;;;41.85;;
54125;SDS011;40360;52.992;6.796;2023-04-16T00:33:40;95.18;;;41.20;;
54125;SDS011;40360;52.992;6.796;2023-04-16T00:36:05;85.07;;;39.60;;
54125;SDS011;40360;52.992;6.796;2023-04-16T00:38:31;84.57;;;38.65;;
54125;SDS011;40360;52.992;6.796;2023-04-16T00:40:57;84.82;;;39.75;;
54125;SDS011;40360;52.992;6.796;2023-04-16T00:43:23;86.20;;;41.90;;
54125;SDS011;40360;52.992;6.796;2023-04-16T00:45:51;86.40;;;41.35;;
54125;SDS011;40360;52.992;6.796;2023-04-16T00:48:19;84.22;;;42.47;;
54125;SDS011;40360;52.992;6.796;2023-04-16T00:50:45;79.93;;;41.03;;
54125;SDS011;40360;52.992;6.796;2023-04-16T00:53:11;92.85;;;43.08;;
54125;SDS011;40360;52.992;6.796;2023-04-16T00:55:38;98.90;;;45.88;;
54125;SDS011;40360;52.992;6.796;2023-04-16T00:58:04;96.15;;;43.38;;
54125;SDS011;40360;52.992;6.796;2023-04-16T01:00:30;80.70;;;44.20;;
54125;SDS011;40360;52.992;6.796;2023-04-16T01:02:56;97.50;;;44.85;;
54125;SDS011;40360;52.992;6.796;2023-04-16T01:05:24;98.82;;;47.40;;
54125;SDS011;40360;52.992;6.796;2023-04-16T01:07:50;96.78;;;46.90;;
54125;SDS011;40360;52.992;6.796;2023-04-16T01:10:16;90.38;;;45.63;;
54125;SDS011;40360;52.992;6.796;2023-04-16T01:12:42;92.60;;;47.00;;
54125;SDS011;40360;52.992;6.796;2023-04-16T01:15:07;101.40;;;48.30;;
54125;SDS011;40360;52.992;6.796;2023-04-16T01:17:33;90.18;;;46.58;;
54125;SDS011;40360;52.992;6.796;2023-04-16T01:19:59;97.53;;;46.00;;
54125;SDS011;40360;52.992;6.796;2023-04-16T01:22:26;97.90;;;46.67;;
54125;SDS011;40360;52.992;6.796;2023-04-16T01:24:52;96.97;;;48.10;;
54125;SDS011;40360;52.992;6.796;2023-04-16T01:27:17;102.20;;;49.03;;
54125;SDS011;40360;52.992;6.796;2023-04-16T01:29:43;103.05;;;48.58;;
54125;SDS011;40360;52.992;6.796;2023-04-16T01:32:08;105.25;;;49.47;;
54125;SDS011;40360;52.992;6.796;2023-04-16T01:34:34;92.63;;;46.92;;
54125;SDS011;40360;52.992;6.796;2023-04-16T01:37:00;96.53;;;49.17;;
54125;SDS011;40360;52.992;6.796;2023-04-16T01:39:27;110.53;;;49.35;;
54125;SDS011;40360;52.992;6.796;2023-04-16T01:41:53;117.05;;;53.05;;
54125;SDS011;40360;52.992;6.796;2023-04-16T01:44:19;116.65;;;52.95;;
54125;SDS011;40360;52.992;6.796;2023-04-16T01:46:46;106.70;;;52.33;;
54125;SDS011;40360;52.992;6.796;2023-04-16T01:49:11;115.47;;;52.17;;
54125;SDS011;40360;52.992;6.796;2023-04-16T01:51:37;94.80;;;50.67;;
54125;SDS011;40360;52.992;6.796;2023-04-16T01:54:03;109.80;;;54.22;;
54125;SDS011;40360;52.992;6.796;2023-04-16T01:56:29;122.35;;;53.90;;
54125;SDS011;40360;52.992;6.796;2023-04-16T01:58:54;113.63;;;56.08;;
54125;SDS011;40360;52.992;6.796;2023-04-16T02:01:20;107.63;;;52.25;;
54125;SDS011;40360;52.992;6.796;2023-04-16T02:03:46;103.47;;;50.80;;
54125;SDS011;40360;52.992;6.796;2023-04-16T02:06:12;111.07;;;53.38;;
54125;SDS011;40360;52.992;6.796;2023-04-16T02:08:37;94.28;;;50.22;;
54125;SDS011;40360;52.992;6.796;2023-04-16T02:11:03;94.97;;;50.58;;
54125;SDS011;40360;52.992;6.796;2023-04-16T02:13:29;120.75;;;54.53;;
54125;SDS011;40360;52.992;6.796;2023-04-16T02:15:54;123.80;;;53.17;;
54125;SDS011;40360;52.992;6.796;2023-04-16T02:18:20;95.20;;;51.00;;
54125;SDS011;40360;52.992;6.796;2023-04-16T02:20:46;127.93;;;53.55;;
54125;SDS011;40360;52.992;6.796;2023-04-16T02:23:13;107.40;;;50.67;;
54125;SDS011;40360;52.992;6.796;2023-04-16T02:25:43;112.30;;;53.17;;
54125;SDS011;40360;52.992;6.796;2023-04-16T02:28:11;119.43;;;56.80;;
54125;SDS011;40360;52.992;6.796;2023-04-16T02:30:39;108.22;;;52.47;;
54125;SDS011;40360;52.992;6.796;2023-04-16T02:33:06;128.77;;;55.50;;
54125;SDS011;40360;52.992;6.796;2023-04-16T02:35:33;96.65;;;49.20;;
54125;SDS011;40360;52.992;6.796;2023-04-16T02:38:00;97.18;;;49.00;;
54125;SDS011;40360;52.992;6.796;2023-04-16T02:40:26;107.63;;;53.30;;
54125;SDS011;40360;52.992;6.796;2023-04-16T02:42:52;102.50;;;49.90;;
54125;SDS011;40360;52.992;6.796;2023-04-16T02:45:19;109.20;;;52.17;;
54125;SDS011;40360;52.992;6.796;2023-04-16T02:47:45;123.82;;;54.67;;
54125;SDS011;40360;52.992;6.796;2023-04-16T02:50:11;125.90;;;52.85;;
54125;SDS011;40360;52.992;6.796;2023-04-16T02:52:37;110.28;;;49.20;;
54125;SDS011;40360;52.992;6.796;2023-04-16T02:55:03;124.68;;;53.63;;
54125;SDS011;40360;52.992;6.796;2023-04-16T02:57:29;109.82;;;50.83;;
54125;SDS011;40360;52.992;6.796;2023-04-16T02:59:54;161.48;;;54.33;;
54125;SDS011;40360;52.992;6.796;2023-04-16T03:02:20;141.80;;;54.75;;
54125;SDS011;40360;52.992;6.796;2023-04-16T03:04:45;115.50;;;46.08;;
54125;SDS011;40360;52.992;6.796;2023-04-16T03:07:11;95.38;;;44.78;;
54125;SDS011;40360;52.992;6.796;2023-04-16T03:09:37;163.18;;;50.00;;
54125;SDS011;40360;52.992;6.796;2023-04-16T03:12:03;101.95;;;46.10;;
54125;SDS011;40360;52.992;6.796;2023-04-16T03:14:29;165.57;;;53.22;;
54125;SDS011;40360;52.992;6.796;2023-04-16T03:16:55;115.75;;;48.35;;
54125;SDS011;40360;52.992;6.796;2023-04-16T03:19:21;148.43;;;51.45;;
54125;SDS011;40360;52.992;6.796;2023-04-16T03:21:47;133.98;;;47.40;;
54125;SDS011;40360;52.992;6.796;2023-04-16T03:24:13;151.75;;;51.42;;
54125;SDS011;40360;52.992;6.796;2023-04-16T03:26:38;120.15;;;48.33;;
54125;SDS011;40360;52.992;6.796;2023-04-16T03:29:04;136.85;;;51.10;;
54125;SDS011;40360;52.992;6.796;2023-04-16T03:31:30;151.95;;;50.30;;
54125;SDS011;40360;52.992;6.796;2023-04-16T03:33:56;111.93;;;47.75;;
54125;SDS011;40360;52.992;6.796;2023-04-16T03:36:21;136.98;;;49.80;;
54125;SDS011;40360;52.992;6.796;2023-04-16T03:38:47;123.57;;;49.67;;
54125;SDS011;40360;52.992;6.796;2023-04-16T03:41:13;142.82;;;51.55;;
54125;SDS011;40360;52.992;6.796;2023-04-16T03:43:39;127.75;;;49.50;;
54125;SDS011;40360;52.992;6.796;2023-04-16T03:46:05;107.55;;;45.20;;
54125;SDS011;40360;52.992;6.796;2023-04-16T03:48:31;181.73;;;56.88;;
54125;SDS011;40360;52.992;6.796;2023-04-16T03:50:57;152.57;;;55.47;;
54125;SDS011;40360;52.992;6.796;2023-04-16T03:53:22;126.68;;;50.95;;
54125;SDS011;40360;52.992;6.796;2023-04-16T03:55:49;142.25;;;51.72;;
54125;SDS011;40360;52.992;6.796;2023-04-16T03:58:16;122.50;;;53.35;;
54125;SDS011;40360;52.992;6.796;2023-04-16T04:00:41;135.23;;;52.40;;
54125;SDS011;40360;52.992;6.796;2023-04-16T04:03:08;140.60;;;53.65;;
54125;SDS011;40360;52.992;6.796;2023-04-16T04:05:35;151.27;;;53.92;;
54125;SDS011;40360;52.992;6.796;2023-04-16T04:08:04;127.63;;;52.63;;
54125;SDS011;40360;52.992;6.796;2023-04-16T04:10:31;122.95;;;52.83;;
54125;SDS011;40360;52.992;6.796;2023-04-16T04:12:57;121.68;;;53.70;;
54125;SDS011;40360;52.992;6.796;2023-04-16T04:15:22;127.35;;;53.35;;
54125;SDS011;40360;52.992;6.796;2023-04-16T04:17:48;117.57;;;51.75;;
54125;SDS011;40360;52.992;6.796;2023-04-16T04:20:14;108.72;;;50.17;;
54125;SDS011;40360;52.992;6.796;2023-04-16T04:22:40;112.38;;;50.75;;
54125;SDS011;40360;52.992;6.796;2023-04-16T04:25:06;115.38;;;53.05;;
54125;SDS011;40360;52.992;6.796;2023-04-16T04:27:34;103.93;;;48.05;;
54125;SDS011;40360;52.992;6.796;2023-04-16T04:30:00;103.50;;;50.13;;
54125;SDS011;40360;52.992;6.796;2023-04-16T04:32:26;92.90;;;47.28;;
54125;SDS011;40360;52.992;6.796;2023-04-16T04:34:51;102.35;;;49.10;;
54125;SDS011;40360;52.992;6.796;2023-04-16T04:37:17;103.75;;;47.88;;
54125;SDS011;40360;52.992;6.796;2023-04-16T04:39:43;96.03;;;45.30;;
54125;SDS011;40360;52.992;6.796;2023-04-16T04:42:08;115.63;;;49.85;;
54125;SDS011;40360;52.992;6.796;2023-04-16T04:44:34;110.13;;;51.10;;
54125;SDS011;40360;52.992;6.796;2023-04-16T04:47:00;122.00;;;52.03;;
54125;SDS011;40360;52.992;6.796;2023-04-16T04:49:25;109.60;;;47.53;;
54125;SDS011;40360;52.992;6.796;2023-04-16T04:51:51;106.90;;;48.88;;
54125;SDS011;40360;52.992;6.796;2023-04-16T04:54:17;105.43;;;50.53;;
54125;SDS011;40360;52.992;6.796;2023-04-16T04:56:42;123.07;;;50.30;;
54125;SDS011;40360;52.992;6.796;2023-04-16T04:59:11;95.55;;;45.60;;
54125;SDS011;40360;52.992;6.796;2023-04-16T05:01:37;133.18;;;48.83;;
54125;SDS011;40360;52.992;6.796;2023-04-16T05:04:03;115.50;;;48.30;;
54125;SDS011;40360;52.992;6.796;2023-04-16T05:06:28;104.45;;;47.83;;
54125;SDS011;40360;52.992;6.796;2023-04-16T05:08:55;110.07;;;48.63;;
54125;SDS011;40360;52.992;6.796;2023-04-16T05:11:21;104.85;;;48.67;;
54125;SDS011;40360;52.992;6.796;2023-04-16T05:13:46;119.63;;;48.75;;
54125;SDS011;40360;52.992;6.796;2023-04-16T05:16:12;105.10;;;47.10;;
54125;SDS011;40360;52.992;6.796;2023-04-16T05:18:37;108.32;;;46.40;;
54125;SDS011;40360;52.992;6.796;2023-04-16T05:21:03;97.72;;;43.85;;
54125;SDS011;40360;52.992;6.796;2023-04-16T05:23:29;108.53;;;48.33;;
54125;SDS011;40360;52.992;6.796;2023-04-16T05:25:55;95.50;;;45.88;;
54125;SDS011;40360;52.992;6.796;2023-04-16T05:28:20;102.55;;;45.75;;
54125;SDS011;40360;52.992;6.796;2023-04-16T05:30:46;90.55;;;45.90;;
54125;SDS011;40360;52.992;6.796;2023-04-16T05:33:11;102.97;;;46.60;;
54125;SDS011;40360;52.992;6.796;2023-04-16T05:35:37;92.72;;;45.22;;
54125;SDS011;40360;52.992;6.796;2023-04-16T05:38:02;90.35;;;44.50;;
54125;SDS011;40360;52.992;6.796;2023-04-16T05:40:28;92.85;;;45.08;;
54125;SDS011;40360;52.992;6.796;2023-04-16T05:42:54;96.18;;;44.67;;
54125;SDS011;40360;52.992;6.796;2023-04-16T06:01:57;99.03;;;46.78;;
54125;SDS011;40360;52.992;6.796;2023-04-16T06:04:22;104.05;;;47.28;;
54125;SDS011;40360;52.992;6.796;2023-04-16T06:06:48;78.50;;;42.28;;
54125;SDS011;40360;52.992;6.796;2023-04-16T06:09:14;107.65;;;48.72;;
54125;SDS011;40360;52.992;6.796;2023-04-16T06:11:40;115.28;;;48.00;;
54125;SDS011;40360;52.992;6.796;2023-04-16T06:14:05;101.68;;;49.00;;
54125;SDS011;40360;52.992;6.796;2023-04-16T06:16:31;107.95;;;52.10;;
54125;SDS011;40360;52.992;6.796;2023-04-16T06:18:57;108.13;;;49.08;;
54125;SDS011;40360;52.992;6.796;2023-04-16T06:21:23;98.03;;;47.40;;
54125;SDS011;40360;52.992;6.796;2023-04-16T06:23:48;99.68;;;49.15;;
54125;SDS011;40360;52.992;6.796;2023-04-16T06:26:14;115.63;;;52.28;;
54125;SDS011;40360;52.992;6.796;2023-04-16T06:28:40;90.20;;;46.88;;
54125;SDS011;40360;52.992;6.796;2023-04-16T06:31:05;91.65;;;47.20;;
54125;SDS011;40360;52.992;6.796;2023-04-16T06:33:31;92.72;;;46.28;;
54125;SDS011;40360;52.992;6.796;2023-04-16T06:35:56;85.43;;;43.30;;
54125;SDS011;40360;52.992;6.796;2023-04-16T06:38:22;83.43;;;45.13;;
54125;SDS011;40360;52.992;6.796;2023-04-16T06:40:47;77.22;;;42.72;;
54125;SDS011;40360;52.992;6.796;2023-04-16T06:43:13;83.40;;;40.83;;
54125;SDS011;40360;52.992;6.796;2023-04-16T06:45:41;81.28;;;43.17;;
54125;SDS011;40360;52.992;6.796;2023-04-16T06:48:07;89.47;;;42.47;;
54125;SDS011;40360;52.992;6.796;2023-04-16T06:50:33;69.80;;;40.50;;
54125;SDS011;40360;52.992;6.796;2023-04-16T06:52:58;78.05;;;42.47;;
54125;SDS011;40360;52.992;6.796;2023-04-16T06:55:24;69.68;;;39.55;;
54125;SDS011;40360;52.992;6.796;2023-04-16T06:57:50;80.40;;;43.10;;
54125;SDS011;40360;52.992;6.796;2023-04-16T07:00:16;74.57;;;40.38;;
54125;SDS011;40360;52.992;6.796;2023-04-16T07:02:41;72.60;;;39.67;;
54125;SDS011;40360;52.992;6.796;2023-04-16T07:05:07;74.75;;;37.70;;
54125;SDS011;40360;52.992;6.796;2023-04-16T07:07:33;68.45;;;39.08;;
54125;SDS011;40360;52.992;6.796;2023-04-16T07:09:58;67.53;;;37.58;;
54125;SDS011;40360;52.992;6.796;2023-04-16T07:12:24;73.30;;;37.92;;
54125;SDS011;40360;52.992;6.796;2023-04-16T07:14:51;62.67;;;36.05;;
54125;SDS011;40360;52.992;6.796;2023-04-16T07:17:16;60.65;;;36.90;;
54125;SDS011;40360;52.992;6.796;2023-04-16T07:19:42;65.25;;;35.70;;
54125;SDS011;40360;52.992;6.796;2023-04-16T07:22:08;54.22;;;33.58;;
54125;SDS011;40360;52.992;6.796;2023-04-16T07:24:34;63.08;;;34.72;;
54125;SDS011;40360;52.992;6.796;2023-04-16T07:27:00;57.97;;;34.38;;
54125;SDS011;40360;52.992;6.796;2023-04-16T07:29:25;59.53;;;33.78;;
54125;SDS011;40360;52.992;6.796;2023-04-16T07:31:51;57.47;;;33.33;;
54125;SDS011;40360;52.992;6.796;2023-04-16T07:34:16;60.70;;;34.42;;
54125;SDS011;40360;52.992;6.796;2023-04-16T07:36:42;60.28;;;33.25;;
54125;SDS011;40360;52.992;6.796;2023-04-16T07:39:08;54.83;;;32.30;;
54125;SDS011;40360;52.992;6.796;2023-04-16T07:41:34;53.70;;;31.40;;
54125;SDS011;40360;52.992;6.796;2023-04-16T07:44:00;55.00;;;31.38;;
54125;SDS011;40360;52.992;6.796;2023-04-16T07:46:26;62.15;;;32.50;;
54125;SDS011;40360;52.992;6.796;2023-04-16T07:48:52;58.60;;;32.65;;
54125;SDS011;40360;52.992;6.796;2023-04-16T07:51:18;55.67;;;34.33;;
54125;SDS011;40360;52.992;6.796;2023-04-16T07:53:43;49.45;;;30.15;;
54125;SDS011;40360;52.992;6.796;2023-04-16T07:56:09;51.85;;;30.27;;
54125;SDS011;40360;52.992;6.796;2023-04-16T07:58:34;57.85;;;32.35;;
54125;SDS011;40360;52.992;6.796;2023-04-16T08:01:01;53.33;;;31.10;;
54125;SDS011;40360;52.992;6.796;2023-04-16T08:03:26;48.83;;;31.38;;
54125;SDS011;40360;52.992;6.796;2023-04-16T08:05:52;50.70;;;30.77;;
54125;SDS011;40360;52.992;6.796;2023-04-16T08:08:18;47.17;;;29.92;;
54125;SDS011;40360;52.992;6.796;2023-04-16T08:10:43;47.75;;;29.70;;
54125;SDS011;40360;52.992;6.796;2023-04-16T08:13:09;46.13;;;28.17;;
54125;SDS011;40360;52.992;6.796;2023-04-16T08:15:35;47.95;;;29.33;;
54125;SDS011;40360;52.992;6.796;2023-04-16T08:18:00;51.58;;;27.65;;
54125;SDS011;40360;52.992;6.796;2023-04-16T08:20:26;55.70;;;28.25;;
54125;SDS011;40360;52.992;6.796;2023-04-16T08:22:52;50.17;;;27.27;;
54125;SDS011;40360;52.992;6.796;2023-04-16T08:25:18;49.55;;;29.70;;
54125;SDS011;40360;52.992;6.796;2023-04-16T08:27:44;44.83;;;29.13;;
54125;SDS011;40360;52.992;6.796;2023-04-16T08:30:10;46.65;;;29.25;;
54125;SDS011;40360;52.992;6.796;2023-04-16T08:32:36;54.58;;;27.70;;
54125;SDS011;40360;52.992;6.796;2023-04-16T08:35:02;48.60;;;27.00;;
54125;SDS011;40360;52.992;6.796;2023-04-16T08:37:27;48.03;;;26.40;;
54125;SDS011;40360;52.992;6.796;2023-04-16T08:39:53;44.28;;;26.92;;
54125;SDS011;40360;52.992;6.796;2023-04-16T08:42:29;50.15;;;25.52;;
54125;SDS011;40360;52.992;6.796;2023-04-16T08:47:51;46.92;;;27.48;;
54125;SDS011;40360;52.992;6.796;2023-04-16T08:50:24;43.40;;;25.42;;
54125;SDS011;40360;52.992;6.796;2023-04-16T08:52:51;42.20;;;24.77;;
54125;SDS011;40360;52.992;6.796;2023-04-16T08:55:38;40.88;;;25.02;;
54125;SDS011;40360;52.992;6.796;2023-04-16T08:58:28;44.47;;;23.80;;
54125;SDS011;40360;52.992;6.796;2023-04-16T09:00:55;42.60;;;24.70;;
54125;SDS011;40360;52.992;6.796;2023-04-16T09:03:21;39.22;;;22.73;;
54125;SDS011;40360;52.992;6.796;2023-04-16T09:05:47;33.55;;;23.20;;
54125;SDS011;40360;52.992;6.796;2023-04-16T09:08:13;38.17;;;22.35;;
54125;SDS011;40360;52.992;6.796;2023-04-16T09:10:39;31.40;;;20.95;;
54125;SDS011;40360;52.992;6.796;2023-04-16T09:13:05;37.08;;;24.20;;
54125;SDS011;40360;52.992;6.796;2023-04-16T09:15:33;31.98;;;20.48;;
54125;SDS011;40360;52.992;6.796;2023-04-16T09:18:00;34.10;;;21.45;;
54125;SDS011;40360;52.992;6.796;2023-04-16T09:20:25;33.30;;;21.58;;
54125;SDS011;40360;52.992;6.796;2023-04-16T09:22:51;38.17;;;20.75;;
54125;SDS011;40360;52.992;6.796;2023-04-16T09:25:16;35.75;;;21.20;;
54125;SDS011;40360;52.992;6.796;2023-04-16T09:27:46;35.58;;;18.95;;
54125;SDS011;40360;52.992;6.796;2023-04-16T09:30:18;29.95;;;19.52;;
54125;SDS011;40360;52.992;6.796;2023-04-16T09:32:48;31.58;;;20.58;;
54125;SDS011;40360;52.992;6.796;2023-04-16T09:35:15;31.13;;;19.73;;
54125;SDS011;40360;52.992;6.796;2023-04-16T09:37:53;36.30;;;20.73;;
54125;SDS011;40360;52.992;6.796;2023-04-16T09:40:24;33.85;;;20.58;;
54125;SDS011;40360;52.992;6.796;2023-04-16T09:42:51;30.52;;;21.00;;
54125;SDS011;40360;52.992;6.796;2023-04-16T09:45:20;32.10;;;19.60;;
54125;SDS011;40360;52.992;6.796;2023-04-16T09:47:46;30.65;;;20.23;;
54125;SDS011;40360;52.992;6.796;2023-04-16T09:50:15;36.83;;;21.20;;
54125;SDS011;40360;52.992;6.796;2023-04-16T09:52:44;29.95;;;20.48;;
54125;SDS011;40360;52.992;6.796;2023-04-16T09:55:12;29.55;;;19.38;;
54125;SDS011;40360;52.992;6.796;2023-04-16T09:57:38;31.00;;;19.75;;
54125;SDS011;40360;52.992;6.796;2023-04-16T10:00:04;35.35;;;21.25;;
54125;SDS011;40360;52.992;6.796;2023-04-16T10:02:34;31.48;;;20.33;;
54125;SDS011;40360;52.992;6.796;2023-04-16T10:05:03;32.03;;;18.17;;
54125;SDS011;40360;52.992;6.796;2023-04-16T10:07:32;29.23;;;20.13;;
54125;SDS011;40360;52.992;6.796;2023-04-16T10:09:58;32.30;;;19.73;;
54125;SDS011;40360;52.992;6.796;2023-04-16T10:12:24;33.95;;;20.77;;
54125;SDS011;40360;52.992;6.796;2023-04-16T10:14:51;27.17;;;19.67;;
54125;SDS011;40360;52.992;6.796;2023-04-16T10:17:16;32.60;;;19.75;;
54125;SDS011;40360;52.992;6.796;2023-04-16T10:19:42;31.15;;;18.77;;
54125;SDS011;40360;52.992;6.796;2023-04-16T10:22:09;26.90;;;19.10;;
54125;SDS011;40360;52.992;6.796;2023-04-16T10:24:35;29.58;;;18.77;;
54125;SDS011;40360;52.992;6.796;2023-04-16T10:27:01;28.58;;;19.80;;
54125;SDS011;40360;52.992;6.796;2023-04-16T10:29:28;29.58;;;19.88;;
54125;SDS011;40360;52.992;6.796;2023-04-16T10:31:55;32.67;;;19.67;;
54125;SDS011;40360;52.992;6.796;2023-04-16T10:34:22;30.92;;;18.52;;
54125;SDS011;40360;52.992;6.796;2023-04-16T10:36:49;29.90;;;19.25;;
54125;SDS011;40360;52.992;6.796;2023-04-16T10:39:20;30.58;;;19.17;;
54125;SDS011;40360;52.992;6.796;2023-04-16T10:41:47;31.80;;;20.98;;
54125;SDS011;40360;52.992;6.796;2023-04-16T10:44:15;28.27;;;18.45;;
54125;SDS011;40360;52.992;6.796;2023-04-16T10:46:43;28.92;;;18.67;;
54125;SDS011;40360;52.992;6.796;2023-04-16T10:51:39;31.52;;;20.48;;
54125;SDS011;40360;52.992;6.796;2023-04-16T10:56:36;24.98;;;17.88;;
54125;SDS011;40360;52.992;6.796;2023-04-16T10:59:05;24.58;;;16.70;;
54125;SDS011;40360;52.992;6.796;2023-04-16T11:01:33;25.75;;;17.73;;
54125;SDS011;40360;52.992;6.796;2023-04-16T11:12:17;29.60;;;17.23;;
54125;SDS011;40360;52.992;6.796;2023-04-16T11:14:51;25.23;;;17.25;;
54125;SDS011;40360;52.992;6.796;2023-04-16T11:17:18;24.55;;;17.77;;
54125;SDS011;40360;52.992;6.796;2023-04-16T11:19:45;23.23;;;15.98;;
54125;SDS011;40360;52.992;6.796;2023-04-16T11:22:13;23.50;;;17.35;;
54125;SDS011;40360;52.992;6.796;2023-04-16T11:24:42;25.88;;;17.83;;
54125;SDS011;40360;52.992;6.796;2023-04-16T11:27:08;22.63;;;16.38;;
54125;SDS011;40360;52.992;6.796;2023-04-16T11:29:35;25.55;;;17.92;;
54125;SDS011;40360;52.992;6.796;2023-04-16T11:32:01;26.88;;;17.00;;
54125;SDS011;40360;52.992;6.796;2023-04-16T11:34:27;26.05;;;16.80;;
54125;SDS011;40360;52.992;6.796;2023-04-16T11:36:53;21.73;;;16.42;;
54125;SDS011;40360;52.992;6.796;2023-04-16T11:39:18;23.08;;;16.45;;
54125;SDS011;40360;52.992;6.796;2023-04-16T11:41:45;27.15;;;15.88;;
54125;SDS011;40360;52.992;6.796;2023-04-16T11:44:18;22.33;;;17.20;;
54125;SDS011;40360;52.992;6.796;2023-04-16T11:46:49;24.48;;;17.38;;
54125;SDS011;40360;52.992;6.796;2023-04-16T11:49:15;23.42;;;17.75;;
54125;SDS011;40360;52.992;6.796;2023-04-16T11:51:42;24.63;;;17.65;;
54125;SDS011;40360;52.992;6.796;2023-04-16T11:54:09;22.48;;;16.52;;
54125;SDS011;40360;52.992;6.796;2023-04-16T11:56:46;27.63;;;16.30;;
54125;SDS011;40360;52.992;6.796;2023-04-16T11:59:13;26.10;;;16.02;;
54125;SDS011;40360;52.992;6.796;2023-04-16T12:01:40;24.35;;;15.70;;
54125;SDS011;40360;52.992;6.796;2023-04-16T12:04:10;24.30;;;17.13;;
54125;SDS011;40360;52.992;6.796;2023-04-16T12:06:37;25.05;;;16.80;;
54125;SDS011;40360;52.992;6.796;2023-04-16T12:11:48;20.90;;;15.20;;
54125;SDS011;40360;52.992;6.796;2023-04-16T12:14:13;28.20;;;17.52;;
54125;SDS011;40360;52.992;6.796;2023-04-16T12:16:39;25.20;;;17.08;;
54125;SDS011;40360;52.992;6.796;2023-04-16T12:19:05;23.30;;;16.00;;
54125;SDS011;40360;52.992;6.796;2023-04-16T12:21:44;25.80;;;16.73;;
54125;SDS011;40360;52.992;6.796;2023-04-16T12:24:16;27.30;;;16.80;;
54125;SDS011;40360;52.992;6.796;2023-04-16T12:26:51;25.85;;;16.90;;
54125;SDS011;40360;52.992;6.796;2023-04-16T12:29:24;27.52;;;17.80;;
54125;SDS011;40360;52.992;6.796;2023-04-16T12:31:52;25.52;;;15.52;;
54125;SDS011;40360;52.992;6.796;2023-04-16T12:34:19;25.83;;;17.30;;
54125;SDS011;40360;52.992;6.796;2023-04-16T12:36:46;28.73;;;16.65;;
54125;SDS011;40360;52.992;6.796;2023-04-16T12:39:12;24.23;;;16.60;;
54125;SDS011;40360;52.992;6.796;2023-04-16T12:41:40;21.02;;;16.27;;
54125;SDS011;40360;52.992;6.796;2023-04-16T12:44:11;24.98;;;16.58;;
54125;SDS011;40360;52.992;6.796;2023-04-16T12:46:40;23.38;;;17.15;;
54125;SDS011;40360;52.992;6.796;2023-04-16T12:49:07;27.80;;;15.68;;
54125;SDS011;40360;52.992;6.796;2023-04-16T12:51:34;24.90;;;16.83;;
54125;SDS011;40360;52.992;6.796;2023-04-16T12:54:01;23.10;;;16.10;;
54125;SDS011;40360;52.992;6.796;2023-04-16T12:56:29;22.35;;;16.15;;
54125;SDS011;40360;52.992;6.796;2023-04-16T12:58:55;26.98;;;16.63;;
54125;SDS011;40360;52.992;6.796;2023-04-16T13:01:20;25.30;;;16.83;;
54125;SDS011;40360;52.992;6.796;2023-04-16T13:03:47;33.45;;;17.92;;
54125;SDS011;40360;52.992;6.796;2023-04-16T13:06:13;23.13;;;17.23;;
54125;SDS011;40360;52.992;6.796;2023-04-16T13:08:40;25.60;;;16.95;;
54125;SDS011;40360;52.992;6.796;2023-04-16T13:11:07;29.58;;;18.52;;
54125;SDS011;40360;52.992;6.796;2023-04-16T13:13:32;26.98;;;17.75;;
54125;SDS011;40360;52.992;6.796;2023-04-16T13:15:58;26.83;;;18.40;;
54125;SDS011;40360;52.992;6.796;2023-04-16T13:18:24;28.52;;;18.23;;
54125;SDS011;40360;52.992;6.796;2023-04-16T13:20:53;35.28;;;18.00;;
54125;SDS011;40360;52.992;6.796;2023-04-16T13:23:19;33.20;;;19.50;;
54125;SDS011;40360;52.992;6.796;2023-04-16T13:25:44;28.80;;;17.85;;
54125;SDS011;40360;52.992;6.796;2023-04-16T13:28:10;32.92;;;19.67;;
54125;SDS011;40360;52.992;6.796;2023-04-16T13:30:35;26.77;;;17.60;;
54125;SDS011;40360;52.992;6.796;2023-04-16T13:33:01;25.08;;;16.70;;
54125;SDS011;40360;52.992;6.796;2023-04-16T13:35:28;31.20;;;18.30;;
54125;SDS011;40360;52.992;6.796;2023-04-16T13:37:54;31.95;;;19.45;;
54125;SDS011;40360;52.992;6.796;2023-04-16T13:40:19;26.05;;;18.25;;
54125;SDS011;40360;52.992;6.796;2023-04-16T13:42:45;25.27;;;18.17;;
54125;SDS011;40360;52.992;6.796;2023-04-16T13:45:11;24.15;;;17.33;;
54125;SDS011;40360;52.992;6.796;2023-04-16T13:47:39;32.65;;;20.58;;
54125;SDS011;40360;52.992;6.796;2023-04-16T13:50:08;31.10;;;19.17;;
54125;SDS011;40360;52.992;6.796;2023-04-16T13:52:34;31.05;;;19.88;;
54125;SDS011;40360;52.992;6.796;2023-04-16T13:55:00;31.70;;;20.17;;
54125;SDS011;40360;52.992;6.796;2023-04-16T13:57:27;30.92;;;19.38;;
54125;SDS011;40360;52.992;6.796;2023-04-16T13:59:53;31.60;;;19.95;;
54125;SDS011;40360;52.992;6.796;2023-04-16T14:02:20;30.65;;;19.50;;
54125;SDS011;40360;52.992;6.796;2023-04-16T14:04:46;28.83;;;19.38;;
54125;SDS011;40360;52.992;6.796;2023-04-16T14:07:12;34.13;;;21.38;;
54125;SDS011;40360;52.992;6.796;2023-04-16T14:09:38;29.92;;;19.15;;
54125;SDS011;40360;52.992;6.796;2023-04-16T14:12:04;31.33;;;19.33;;
54125;SDS011;40360;52.992;6.796;2023-04-16T14:14:30;31.67;;;20.30;;
54125;SDS011;40360;52.992;6.796;2023-04-16T14:16:59;34.45;;;20.10;;
54125;SDS011;40360;52.992;6.796;2023-04-16T14:19:27;33.90;;;20.48;;
54125;SDS011;40360;52.992;6.796;2023-04-16T14:21:52;33.38;;;20.75;;
54125;SDS011;40360;52.992;6.796;2023-04-16T14:24:18;28.95;;;20.25;;
54125;SDS011;40360;52.992;6.796;2023-04-16T14:26:44;30.88;;;19.48;;
54125;SDS011;40360;52.992;6.796;2023-04-16T14:29:11;31.95;;;19.60;;
54125;SDS011;40360;52.992;6.796;2023-04-16T14:31:36;34.40;;;20.13;;
54125;SDS011;40360;52.992;6.796;2023-04-16T14:34:02;32.25;;;20.08;;
54125;SDS011;40360;52.992;6.796;2023-04-16T14:36:28;28.30;;;20.23;;
54125;SDS011;40360;52.992;6.796;2023-04-16T14:38:55;33.50;;;21.58;;
54125;SDS011;40360;52.992;6.796;2023-04-16T14:41:20;33.28;;;21.00;;
54125;SDS011;40360;52.992;6.796;2023-04-16T14:43:46;31.73;;;18.50;;
54125;SDS011;40360;52.992;6.796;2023-04-16T14:46:12;30.55;;;19.02;;
54125;SDS011;40360;52.992;6.796;2023-04-16T14:48:41;30.35;;;19.63;;
54125;SDS011;40360;52.992;6.796;2023-04-16T14:51:07;29.48;;;19.65;;